createdAt,value
2018-07-28T00:00:03.104Z,19.25
2018-07-28T00:01:03.721Z,19.25
2018-07-28T00:02:04.011Z,19.25
2018-07-28T00:03:03.283Z,19.25
2018-07-28T00:04:03.617Z,19.312
2018-07-28T00:05:03.925Z,19.312
2018-07-28T00:06:03.313Z,19.25
2018-07-28T00:07:03.518Z,19.25
2018-07-28T00:08:03.638Z,19.187
2018-07-28T00:09:05.125Z,19.25
2018-07-28T00:10:03.668Z,19.25
2018-07-28T00:11:03.800Z,19.312
2018-07-28T00:12:03.977Z,19.312
2018-07-28T00:13:04.270Z,19.375
2018-07-28T00:14:03.319Z,19.375
2018-07-28T00:15:03.656Z,19.375
2018-07-28T00:16:03.943Z,19.375
2018-07-28T00:17:04.411Z,19.375
2018-07-28T00:18:03.636Z,19.375
2018-07-28T00:19:04.501Z,19.375
2018-07-28T00:20:03.472Z,19.437
2018-07-28T00:21:03.738Z,19.375
2018-07-28T00:22:03.991Z,19.437
2018-07-28T00:23:03.290Z,19.437
2018-07-28T00:24:03.535Z,19.437
2018-07-28T00:25:03.803Z,19.437
2018-07-28T00:26:05.106Z,19.375
2018-07-28T00:27:04.178Z,19.375
2018-07-28T00:28:03.429Z,19.375
2018-07-28T00:29:03.781Z,19.437
2018-07-28T00:30:04.006Z,19.437
2018-07-28T00:31:03.390Z,19.437
2018-07-28T00:32:03.553Z,19.437
2018-07-28T00:33:03.620Z,19.437
2018-07-28T00:34:03.597Z,19.437
2018-07-28T00:35:03.992Z,19.437
2018-07-28T00:36:04.134Z,19.437
2018-07-28T00:37:03.324Z,19.437
2018-07-28T00:38:03.419Z,19.375
2018-07-28T00:39:03.777Z,19.375
2018-07-28T00:40:03.780Z,19.312
2018-07-28T00:41:04.121Z,19.25
2018-07-28T00:42:03.211Z,19.187
2018-07-28T00:43:03.389Z,19.25
2018-07-28T00:44:03.638Z,19.25
2018-07-28T00:45:03.911Z,19.187
2018-07-28T00:46:03.241Z,19.187
2018-07-28T00:47:03.828Z,19.187
2018-07-28T00:48:04.048Z,19.187
2018-07-28T00:49:04.165Z,19.187
2018-07-28T00:50:03.453Z,19.187
2018-07-28T00:51:03.773Z,19.125
2018-07-28T00:52:03.963Z,19.187
2018-07-28T00:53:04.019Z,19.187
2018-07-28T00:54:03.981Z,19.187
2018-07-28T00:55:04.046Z,19.187
2018-07-28T00:56:03.603Z,19.187
2018-07-28T00:57:03.908Z,19.187
2018-07-28T00:58:04.012Z,19.187
2018-07-28T00:59:04.081Z,19.187
2018-07-28T01:00:03.293Z,19.125
2018-07-28T01:01:03.813Z,19.125
2018-07-28T01:02:03.394Z,19.125
2018-07-28T01:03:03.612Z,19.125
2018-07-28T01:04:03.880Z,19.062
2018-07-28T01:05:04.188Z,19.125
2018-07-28T01:06:03.374Z,19.062
2018-07-28T01:07:03.859Z,19.125
2018-07-28T01:08:04.042Z,19.125
2018-07-28T01:09:03.669Z,19.062
2018-07-28T01:10:04.062Z,19.062
2018-07-28T01:11:03.279Z,19.062
2018-07-28T01:12:03.637Z,19
2018-07-28T01:13:04.036Z,18.937
2018-07-28T01:14:03.226Z,18.937
2018-07-28T01:15:03.609Z,19
2018-07-28T01:16:03.902Z,18.937
2018-07-28T01:17:05.149Z,18.937
2018-07-28T01:18:04.040Z,18.875
2018-07-28T01:19:04.070Z,18.875
2018-07-28T01:20:03.397Z,18.875
2018-07-28T01:21:03.772Z,18.812
2018-07-28T01:22:04.122Z,18.812
2018-07-28T01:23:03.391Z,18.812
2018-07-28T01:24:03.732Z,18.812
2018-07-28T01:25:04.045Z,18.812
2018-07-28T01:26:03.188Z,18.812
2018-07-28T01:27:03.794Z,18.75
2018-07-28T01:28:03.949Z,18.75
2018-07-28T01:29:03.630Z,18.75
2018-07-28T01:30:03.922Z,18.687
2018-07-28T01:31:04.179Z,18.687
2018-07-28T01:32:03.342Z,18.625
2018-07-28T01:33:03.449Z,18.625
2018-07-28T01:34:04.012Z,18.625
2018-07-28T01:35:03.459Z,18.562
2018-07-28T01:36:03.845Z,18.562
2018-07-28T01:37:03.963Z,18.562
2018-07-28T01:38:04.171Z,18.5
2018-07-28T01:39:03.631Z,18.437
2018-07-28T01:40:03.899Z,18.437
2018-07-28T01:41:04.188Z,18.375
2018-07-28T01:42:03.416Z,18.312
2018-07-28T01:43:03.670Z,18.312
2018-07-28T01:44:04.040Z,18.312
2018-07-28T01:45:03.394Z,18.312
2018-07-28T01:46:03.602Z,18.312
2018-07-28T01:47:03.272Z,18.25
2018-07-28T01:48:03.426Z,18.25
2018-07-28T01:49:04.136Z,18.187
2018-07-28T01:50:03.404Z,18.25
2018-07-28T01:51:03.720Z,18.187
2018-07-28T01:52:03.997Z,18.187
2018-07-28T01:53:03.489Z,18.187
2018-07-28T01:54:03.798Z,18.187
2018-07-28T01:55:04.098Z,18.187
2018-07-28T01:56:04.155Z,18.125
2018-07-28T01:57:03.144Z,18.125
2018-07-28T01:58:03.242Z,18.125
2018-07-28T01:59:03.479Z,18.187
2018-07-28T02:00:03.697Z,18.25
2018-07-28T02:01:04.031Z,18.25
2018-07-28T02:02:08.985Z,18.312
2018-07-28T02:03:03.345Z,18.312
2018-07-28T02:04:03.467Z,18.312
2018-07-28T02:05:03.653Z,18.375
2018-07-28T02:06:03.636Z,18.375
2018-07-28T02:07:03.859Z,18.312
2018-07-28T02:08:04.097Z,18.312
2018-07-28T02:09:03.701Z,18.312
2018-07-28T02:10:03.322Z,18.25
2018-07-28T02:11:03.717Z,18.25
2018-07-28T02:12:04.003Z,18.187
2018-07-28T02:13:03.397Z,18.125
2018-07-28T02:14:03.773Z,18.125
2018-07-28T02:15:03.176Z,18.125
2018-07-28T02:16:03.393Z,18.125
2018-07-28T02:17:03.729Z,18.062
2018-07-28T02:18:03.878Z,18.062
2018-07-28T02:19:04.049Z,18.062
2018-07-28T02:20:03.293Z,18.062
2018-07-28T02:21:03.985Z,18.125
2018-07-28T02:22:03.225Z,18.125
2018-07-28T02:23:03.540Z,18.125
2018-07-28T02:24:03.890Z,18.125
2018-07-28T02:25:04.125Z,18.125
2018-07-28T02:26:04.286Z,18.125
2018-07-28T02:27:03.907Z,18.062
2018-07-28T02:28:04.019Z,18.062
2018-07-28T02:29:03.374Z,18.062
2018-07-28T02:30:03.661Z,18.125
2018-07-28T02:31:03.890Z,18.125
2018-07-28T02:32:04.042Z,18.187
2018-07-28T02:33:04.118Z,18.187
2018-07-28T02:34:03.371Z,18.187
2018-07-28T02:35:04.538Z,18.25
2018-07-28T02:36:03.248Z,18.187
2018-07-28T02:37:03.409Z,18.187
2018-07-28T02:39:03.806Z,18.187
2018-07-28T02:40:04.072Z,18.187
2018-07-28T02:41:03.268Z,18.25
2018-07-28T02:42:03.560Z,18.25
2018-07-28T02:43:03.781Z,18.25
2018-07-28T02:44:04.014Z,18.25
2018-07-28T02:45:04.353Z,18.25
2018-07-28T02:46:03.759Z,18.25
2018-07-28T02:47:04.018Z,18.25
2018-07-28T02:48:03.217Z,18.25
2018-07-28T02:49:03.455Z,18.25
2018-07-28T02:50:03.708Z,18.25
2018-07-28T02:51:04.008Z,18.25
2018-07-28T02:52:03.396Z,18.25
2018-07-28T02:53:03.585Z,18.312
2018-07-28T02:54:03.946Z,18.312
2018-07-28T02:55:04.108Z,18.312
2018-07-28T02:56:03.271Z,18.375
2018-07-28T02:57:03.792Z,18.312
2018-07-28T02:58:03.840Z,18.312
2018-07-28T02:59:04.218Z,18.312
2018-07-28T03:00:03.315Z,18.312
2018-07-28T03:01:03.762Z,18.312
2018-07-28T03:02:05.153Z,18.312
2018-07-28T03:03:03.431Z,18.312
2018-07-28T03:04:03.850Z,18.312
2018-07-28T03:05:04.022Z,18.312
2018-07-28T03:06:04.152Z,18.312
2018-07-28T03:07:03.536Z,18.312
2018-07-28T03:08:03.977Z,18.25
2018-07-28T03:09:04.419Z,18.25
2018-07-28T03:10:03.580Z,18.25
2018-07-28T03:11:04.027Z,18.187
2018-07-28T03:12:03.367Z,18.187
2018-07-28T03:13:03.600Z,18.187
2018-07-28T03:14:03.887Z,18.187
2018-07-28T03:15:04.045Z,18.187
2018-07-28T03:16:04.019Z,18.187
2018-07-28T03:17:03.772Z,18.187
2018-07-28T03:18:03.957Z,18.25
2018-07-28T03:19:03.696Z,18.187
2018-07-28T03:20:03.989Z,18.187
2018-07-28T03:21:03.359Z,18.187
2018-07-28T03:22:03.723Z,18.187
2018-07-28T03:23:03.869Z,18.25
2018-07-28T03:24:03.341Z,18.25
2018-07-28T03:25:03.402Z,18.25
2018-07-28T03:26:03.698Z,18.25
2018-07-28T03:27:04.078Z,18.187
2018-07-28T03:28:03.477Z,18.187
2018-07-28T03:29:03.575Z,18.187
2018-07-28T03:30:03.663Z,18.187
2018-07-28T03:31:03.809Z,18.187
2018-07-28T03:32:03.899Z,18.187
2018-07-28T03:33:03.947Z,18.187
2018-07-28T03:34:04.018Z,18.187
2018-07-28T03:35:04.037Z,18.187
2018-07-28T03:36:03.165Z,18.25
2018-07-28T03:37:03.779Z,18.312
2018-07-28T03:38:04.032Z,18.375
2018-07-28T03:39:04.522Z,18.437
2018-07-28T03:40:03.663Z,18.5
2018-07-28T03:41:03.829Z,18.562
2018-07-28T03:42:04.019Z,18.625
2018-07-28T03:43:03.569Z,18.687
2018-07-28T03:44:03.822Z,18.75
2018-07-28T03:45:04.020Z,18.812
2018-07-28T03:46:03.362Z,18.875
2018-07-28T03:47:03.701Z,19
2018-07-28T03:48:04.046Z,19.062
2018-07-28T03:49:03.364Z,19.125
2018-07-28T03:50:03.545Z,19.187
2018-07-28T03:51:03.568Z,19.312
2018-07-28T03:52:04.669Z,19.437
2018-07-28T03:53:03.708Z,19.5
2018-07-28T03:54:03.882Z,19.562
2018-07-28T03:55:03.459Z,19.687
2018-07-28T03:56:04.044Z,19.812
2018-07-28T03:57:03.244Z,19.937
2018-07-28T03:58:03.270Z,20
2018-07-28T03:59:03.388Z,20.125
2018-07-28T04:00:03.515Z,20.25
2018-07-28T04:01:03.869Z,20.312
2018-07-28T04:02:03.147Z,20.437
2018-07-28T04:03:03.312Z,20.562
2018-07-28T04:04:03.492Z,20.625
2018-07-28T04:05:03.696Z,20.75
2018-07-28T04:06:03.987Z,20.875
2018-07-28T04:07:03.455Z,21
2018-07-28T04:08:03.562Z,21.125
2018-07-28T04:09:03.984Z,21.25
2018-07-28T04:10:04.018Z,21.375
2018-07-28T04:11:04.173Z,21.5
2018-07-28T04:12:03.253Z,21.562
2018-07-28T04:13:03.276Z,21.687
2018-07-28T04:14:04.834Z,21.75
2018-07-28T04:15:03.810Z,21.875
2018-07-28T04:16:03.942Z,22
2018-07-28T04:17:04.502Z,22.125
2018-07-28T04:18:04.189Z,22.25
2018-07-28T04:19:03.321Z,22.312
2018-07-28T04:20:03.552Z,22.5
2018-07-28T04:21:03.878Z,22.625
2018-07-28T04:22:04.165Z,22.812
2018-07-28T04:23:03.427Z,22.937
2018-07-28T04:24:03.827Z,23.062
2018-07-28T04:25:05.725Z,23.125
2018-07-28T04:26:03.891Z,23.187
2018-07-28T04:27:03.977Z,23.375
2018-07-28T04:28:04.075Z,23.562
2018-07-28T04:29:03.262Z,23.625
2018-07-28T04:30:03.400Z,23.75
2018-07-28T04:31:03.452Z,23.875
2018-07-28T04:32:03.840Z,23.875
2018-07-28T04:33:04.058Z,23.937
2018-07-28T04:34:03.304Z,24.062
2018-07-28T04:35:03.520Z,24.062
2018-07-28T04:36:03.800Z,24.187
2018-07-28T04:37:03.837Z,24.312
2018-07-28T04:38:03.366Z,24.437
2018-07-28T04:39:03.959Z,24.562
2018-07-28T04:40:03.439Z,24.687
2018-07-28T04:41:03.883Z,24.875
2018-07-28T04:42:04.119Z,25
2018-07-28T04:43:03.437Z,25.125
2018-07-28T04:44:03.768Z,25.375
2018-07-28T04:45:05.191Z,25.625
2018-07-28T04:46:04.272Z,25.812
2018-07-28T04:47:03.348Z,25.937
2018-07-28T04:48:03.754Z,26
2018-07-28T04:49:04.188Z,26.062
2018-07-28T04:50:03.382Z,26.187
2018-07-28T04:51:03.651Z,26.25
2018-07-28T04:52:03.560Z,26.375
2018-07-28T04:53:03.933Z,26.375
2018-07-28T04:54:03.456Z,26.375
2018-07-28T04:55:03.861Z,26.375
2018-07-28T04:56:04.106Z,26.312
2018-07-28T04:57:03.161Z,26.375
2018-07-28T04:58:03.323Z,26.437
2018-07-28T04:59:03.523Z,26.625
2018-07-28T05:00:04.080Z,26.687
2018-07-28T05:01:03.523Z,26.875
2018-07-28T05:02:03.660Z,27
2018-07-28T05:03:03.806Z,27.062
2018-07-28T05:04:04.161Z,27.125
2018-07-28T05:05:03.334Z,27.187
2018-07-28T05:06:03.731Z,27.187
2018-07-28T05:07:04.049Z,27.312
2018-07-28T05:08:03.179Z,27.375
2018-07-28T05:09:03.635Z,27.375
2018-07-28T05:10:03.886Z,27.375
2018-07-28T05:11:04.027Z,27.312
2018-07-28T05:12:04.070Z,27.25
2018-07-28T05:13:03.454Z,27.125
2018-07-28T05:14:03.721Z,27.187
2018-07-28T05:15:03.884Z,27.25
2018-07-28T05:16:03.559Z,27.312
2018-07-28T05:17:04.236Z,27.375
2018-07-28T05:18:03.620Z,27.437
2018-07-28T05:19:04.020Z,27.625
2018-07-28T05:20:03.488Z,27.75
2018-07-28T05:21:03.816Z,27.937
2018-07-28T05:22:04.038Z,28.125
2018-07-28T05:23:04.282Z,28.25
2018-07-28T05:24:04.182Z,28.437
2018-07-28T05:25:04.171Z,28.375
2018-07-28T05:26:03.571Z,28.375
2018-07-28T05:27:03.747Z,28.437
2018-07-28T05:28:04.142Z,28.562
2018-07-28T05:29:04.021Z,28.625
2018-07-28T05:30:03.948Z,28.562
2018-07-28T05:31:03.382Z,28.687
2018-07-28T05:32:03.653Z,28.75
2018-07-28T05:33:04.082Z,28.562
2018-07-28T05:34:03.398Z,28.625
2018-07-28T05:35:03.558Z,28.875
2018-07-28T05:36:03.763Z,29
2018-07-28T05:37:03.923Z,29.062
2018-07-28T05:38:03.903Z,29.25
2018-07-28T05:39:04.438Z,29.437
2018-07-28T05:40:04.120Z,29.25
2018-07-28T05:41:03.543Z,29.312
2018-07-28T05:42:03.903Z,29.5
2018-07-28T05:43:04.126Z,29.687
2018-07-28T05:44:03.266Z,29.625
2018-07-28T05:45:03.338Z,29.75
2018-07-28T05:46:03.564Z,29.75
2018-07-28T05:47:03.680Z,29.75
2018-07-28T05:48:04.018Z,29.812
2018-07-28T05:49:03.263Z,29.625
2018-07-28T05:50:03.331Z,29.812
2018-07-28T05:51:03.391Z,30.062
2018-07-28T05:52:03.513Z,30.062
2018-07-28T05:53:03.838Z,30.125
2018-07-28T05:54:03.362Z,30.062
2018-07-28T05:55:03.713Z,30.187
2018-07-28T05:56:03.869Z,30.25
2018-07-28T05:57:04.005Z,30.25
2018-07-28T05:58:04.524Z,30.25
2018-07-28T05:59:04.012Z,30.312
2018-07-28T06:00:03.892Z,30.187
2018-07-28T06:01:03.499Z,30
2018-07-28T06:02:04.423Z,30.187
2018-07-28T06:03:03.824Z,30.125
2018-07-28T06:04:03.435Z,30.25
2018-07-28T06:05:04.264Z,30.437
2018-07-28T06:06:03.407Z,30.375
2018-07-28T06:07:04.048Z,30.625
2018-07-28T06:08:03.582Z,30.75
2018-07-28T06:09:04.458Z,30.875
2018-07-28T06:10:03.887Z,31
2018-07-28T06:11:03.947Z,31
2018-07-28T06:12:04.341Z,31.062
2018-07-28T06:13:04.084Z,31.187
2018-07-28T06:14:03.841Z,31.187
2018-07-28T06:15:03.645Z,31.187
2018-07-28T06:16:04.144Z,31.312
2018-07-28T06:17:05.274Z,31.437
2018-07-28T06:18:03.896Z,31.5
2018-07-28T06:19:03.638Z,31.5
2018-07-28T06:20:04.345Z,31.5
2018-07-28T06:21:04.101Z,31.562
2018-07-28T06:22:03.894Z,31.687
2018-07-28T06:23:03.552Z,31.812
2018-07-28T06:24:04.232Z,31.875
2018-07-28T06:25:04.199Z,32
2018-07-28T06:26:03.805Z,31.812
2018-07-28T06:27:03.399Z,31.625
2018-07-28T06:28:04.134Z,31.5
2018-07-28T06:29:03.772Z,31.375
2018-07-28T06:30:03.383Z,31.312
2018-07-28T06:31:04.035Z,31.375
2018-07-28T06:32:03.757Z,31.562
2018-07-28T06:33:03.492Z,31.75
2018-07-28T06:34:04.226Z,31.937
2018-07-28T06:35:03.625Z,32.125
2018-07-28T06:36:04.031Z,32.312
2018-07-28T06:37:03.840Z,32.375
2018-07-28T06:38:03.557Z,32.312
2018-07-28T06:39:05.440Z,32.25
2018-07-28T06:40:04.095Z,31.937
2018-07-28T06:41:03.759Z,31.937
2018-07-28T06:42:04.336Z,31.937
2018-07-28T06:43:04.047Z,31.687
2018-07-28T06:44:04.916Z,31.5
2018-07-28T06:45:04.146Z,31.437
2018-07-28T06:46:03.673Z,31.375
2018-07-28T06:47:04.286Z,31.625
2018-07-28T06:48:04.043Z,31.812
2018-07-28T06:49:03.547Z,31.812
2018-07-28T06:50:03.884Z,31.687
2018-07-28T06:51:03.746Z,31.687
2018-07-28T06:52:03.284Z,31.75
2018-07-28T06:53:04.003Z,31.875
2018-07-28T06:54:03.643Z,31.875
2018-07-28T06:55:03.429Z,32.062
2018-07-28T06:56:04.210Z,32.25
2018-07-28T06:57:03.864Z,32.437
2018-07-28T06:58:03.596Z,32.687
2018-07-28T06:59:04.213Z,32.875
2018-07-28T07:00:03.803Z,33
2018-07-28T07:01:03.588Z,32.937
2018-07-28T07:02:03.595Z,32.937
2018-07-28T07:03:04.241Z,33.062
2018-07-28T07:04:03.974Z,33.187
2018-07-28T07:05:03.788Z,33.25
2018-07-28T07:06:03.407Z,33.25
2018-07-28T07:07:04.039Z,33.062
2018-07-28T07:08:03.760Z,33.125
2018-07-28T07:09:03.838Z,33.187
2018-07-28T07:10:03.578Z,33.125
2018-07-28T07:11:04.284Z,33.187
2018-07-28T07:12:03.952Z,33.187
2018-07-28T07:13:03.459Z,33.375
2018-07-28T07:14:04.373Z,33.562
2018-07-28T07:15:04.077Z,33.625
2018-07-28T07:17:04.548Z,33.875
2018-07-28T07:18:04.183Z,34
2018-07-28T07:19:03.928Z,34.062
2018-07-28T07:20:03.611Z,34.062
2018-07-28T07:21:04.356Z,34
2018-07-28T07:22:03.979Z,34
2018-07-28T07:23:03.675Z,33.875
2018-07-28T07:24:03.410Z,33.937
2018-07-28T07:25:04.006Z,33.812
2018-07-28T07:26:04.214Z,33.687
2018-07-28T07:27:03.786Z,33.5
2018-07-28T07:28:03.648Z,33.562
2018-07-28T07:29:04.215Z,33.625
2018-07-28T07:30:03.970Z,33.687
2018-07-28T07:31:03.557Z,33.687
2018-07-28T07:32:04.348Z,33.687
2018-07-28T07:33:03.773Z,33.812
2018-07-28T07:34:03.425Z,34
2018-07-28T07:35:04.177Z,34.187
2018-07-28T07:36:03.808Z,34.125
2018-07-28T07:37:03.620Z,34.187
2018-07-28T07:38:04.360Z,34.062
2018-07-28T07:39:04.207Z,33.937
2018-07-28T07:40:03.869Z,33.937
2018-07-28T07:41:03.493Z,33.875
2018-07-28T07:42:03.791Z,33.812
2018-07-28T07:43:03.404Z,33.75
2018-07-28T07:44:03.730Z,33.375
2018-07-28T07:45:03.388Z,33.312
2018-07-28T07:46:04.452Z,33.062
2018-07-28T07:47:03.446Z,33.125
2018-07-28T07:48:04.132Z,33.187
2018-07-28T07:49:03.774Z,33.125
2018-07-28T07:50:03.597Z,33.062
2018-07-28T07:51:04.171Z,33.125
2018-07-28T07:52:03.861Z,33.25
2018-07-28T07:53:04.105Z,33.25
2018-07-28T07:54:03.856Z,33.375
2018-07-28T07:55:03.378Z,33.562
2018-07-28T07:56:04.151Z,33.625
2018-07-28T07:57:03.671Z,33.625
2018-07-28T07:58:04.399Z,33.75
2018-07-28T07:59:03.981Z,33.375
2018-07-28T08:00:03.624Z,33.375
2018-07-28T08:01:04.208Z,33.312
2018-07-28T08:02:04.095Z,33.187
2018-07-28T08:03:04.749Z,33.437
2018-07-28T08:04:04.282Z,33.562
2018-07-28T08:05:04.126Z,33.625
2018-07-28T08:06:03.833Z,33.75
2018-07-28T08:07:03.387Z,33.812
2018-07-28T08:08:03.957Z,33.875
2018-07-28T08:09:03.757Z,33.687
2018-07-28T08:10:03.424Z,33.312
2018-07-28T08:11:04.129Z,33.062
2018-07-28T08:12:03.936Z,32.937
2018-07-28T08:13:03.630Z,33.062
2018-07-28T08:14:04.351Z,33.062
2018-07-28T08:15:03.697Z,33.187
2018-07-28T08:16:03.283Z,33
2018-07-28T08:17:04.280Z,32.875
2018-07-28T08:18:03.938Z,33.062
2018-07-28T08:19:03.640Z,33.25
2018-07-28T08:20:04.005Z,33.187
2018-07-28T08:21:04.855Z,33.312
2018-07-28T08:22:03.666Z,33.25
2018-07-28T08:23:03.555Z,33.187
2018-07-28T08:24:04.072Z,33.375
2018-07-28T08:25:03.719Z,33.562
2018-07-28T08:26:03.363Z,33.812
2018-07-28T08:27:04.063Z,33.812
2018-07-28T08:28:03.502Z,33.875
2018-07-28T08:29:03.306Z,33.875
2018-07-28T08:30:03.832Z,33.875
2018-07-28T08:31:03.559Z,33.937
2018-07-28T08:32:04.268Z,34
2018-07-28T08:33:03.769Z,34.25
2018-07-28T08:34:04.174Z,34.312
2018-07-28T08:35:03.534Z,34
2018-07-28T08:36:04.087Z,33.437
2018-07-28T08:37:03.782Z,33.187
2018-07-28T08:38:03.533Z,32.937
2018-07-28T08:39:05.428Z,32.937
2018-07-28T08:40:03.826Z,32.687
2018-07-28T08:41:03.734Z,32.687
2018-07-28T08:42:04.297Z,32.687
2018-07-28T08:43:03.974Z,32.812
2018-07-28T08:44:03.620Z,32.812
2018-07-28T08:45:04.340Z,33
2018-07-28T08:46:03.564Z,33.25
2018-07-28T08:47:03.620Z,33.375
2018-07-28T08:48:04.413Z,33.5
2018-07-28T08:49:04.063Z,33.625
2018-07-28T08:50:03.832Z,33.625
2018-07-28T08:51:03.592Z,33.625
2018-07-28T08:52:04.229Z,33.437
2018-07-28T08:53:03.772Z,33.187
2018-07-28T08:54:03.477Z,33.062
2018-07-28T08:55:05.294Z,32.937
2018-07-28T08:56:03.341Z,32.687
2018-07-28T08:57:04.107Z,32.437
2018-07-28T08:58:03.857Z,32.25
2018-07-28T08:59:03.667Z,31.937
2018-07-28T09:00:03.470Z,31.937
2018-07-28T09:01:04.149Z,31.687
2018-07-28T09:02:03.582Z,31.625
2018-07-28T09:03:04.331Z,31.5
2018-07-28T09:04:03.439Z,31.562
2018-07-28T09:05:03.910Z,31.687
2018-07-28T09:06:03.727Z,31.812
2018-07-28T09:07:03.551Z,31.812
2018-07-28T09:08:03.970Z,31.937
2018-07-28T09:09:03.920Z,32
2018-07-28T09:10:03.641Z,32
2018-07-28T09:11:04.078Z,31.875
2018-07-28T09:12:03.725Z,31.687
2018-07-28T09:13:04.300Z,31.687
2018-07-28T09:14:03.980Z,31.687
2018-07-28T09:15:03.616Z,31.75
2018-07-28T09:16:04.386Z,31.812
2018-07-28T09:17:04.255Z,31.625
2018-07-28T09:18:03.625Z,31.687
2018-07-28T09:19:04.329Z,31.687
2018-07-28T09:20:04.015Z,31.5
2018-07-28T09:21:03.771Z,31.437
2018-07-28T09:22:03.600Z,31.562
2018-07-28T09:23:03.434Z,31.625
2018-07-28T09:24:03.605Z,31.75
2018-07-28T09:25:04.116Z,31.812
2018-07-28T09:26:04.500Z,31.812
2018-07-28T09:27:03.613Z,31.562
2018-07-28T09:28:03.348Z,31.312
2018-07-28T09:29:03.953Z,31.062
2018-07-28T09:30:03.655Z,30.812
2018-07-28T09:31:04.125Z,30.625
2018-07-28T09:32:03.728Z,30.625
2018-07-28T09:33:04.198Z,30.375
2018-07-28T09:34:03.867Z,30.437
2018-07-28T09:35:03.505Z,30.437
2018-07-28T09:36:04.075Z,30.437
2018-07-28T09:37:03.667Z,30.562
2018-07-28T09:38:04.379Z,30.5
2018-07-28T09:39:04.132Z,30.562
2018-07-28T09:40:03.844Z,30.687
2018-07-28T09:41:04.156Z,30.75
2018-07-28T09:42:03.944Z,30.875
2018-07-28T09:43:03.406Z,31
2018-07-28T09:44:04.062Z,31.25
2018-07-28T09:45:03.611Z,31.562
2018-07-28T09:46:03.972Z,31.812
2018-07-28T09:47:03.883Z,32.062
2018-07-28T09:48:03.574Z,32.312
2018-07-28T09:49:04.173Z,32.5
2018-07-28T09:50:03.857Z,32.625
2018-07-28T09:51:03.479Z,32.812
2018-07-28T09:52:04.242Z,33.062
2018-07-28T09:53:03.744Z,33.25
2018-07-28T09:54:03.940Z,33.25
2018-07-28T09:55:03.660Z,33.25
2018-07-28T09:56:03.454Z,33.312
2018-07-28T09:57:04.209Z,33.375
2018-07-28T09:58:03.828Z,33.437
2018-07-28T09:59:03.615Z,33.5
2018-07-28T10:00:04.293Z,33.5
2018-07-28T10:01:03.980Z,33.437
2018-07-28T10:02:04.528Z,33.375
2018-07-28T10:03:03.807Z,33.375
2018-07-28T10:04:03.804Z,33.437
2018-07-28T10:05:04.251Z,33.5
2018-07-28T10:06:04.239Z,33.312
2018-07-28T10:07:03.798Z,33.187
2018-07-28T10:08:03.591Z,33.187
2018-07-28T10:09:04.370Z,33.187
2018-07-28T10:10:03.915Z,33.25
2018-07-28T10:11:03.727Z,33.312
2018-07-28T10:12:04.277Z,33.437
2018-07-28T10:13:04.111Z,33.5
2018-07-28T10:14:03.565Z,33.5
2018-07-28T10:15:04.322Z,33.625
2018-07-28T10:16:03.797Z,33.75
2018-07-28T10:17:03.685Z,33.812
2018-07-28T10:18:03.532Z,33.812
2018-07-28T10:19:04.000Z,33.75
2018-07-28T10:20:03.683Z,33.75
2018-07-28T10:21:05.286Z,33.75
2018-07-28T10:22:03.718Z,33.625
2018-07-28T10:23:03.987Z,33.5
2018-07-28T10:24:03.724Z,33.187
2018-07-28T10:25:03.461Z,32.812
2018-07-28T10:26:04.181Z,32.625
2018-07-28T10:27:03.778Z,32.75
2018-07-28T10:28:03.654Z,32.875
2018-07-28T10:29:03.837Z,33
2018-07-28T10:30:03.511Z,33.187
2018-07-28T10:31:04.322Z,33.312
2018-07-28T10:32:03.925Z,33.312
2018-07-28T10:33:03.711Z,33.312
2018-07-28T10:34:03.563Z,33
2018-07-28T10:35:04.515Z,32.625
2018-07-28T10:36:04.198Z,32.5
2018-07-28T10:37:03.966Z,32.5
2018-07-28T10:38:03.504Z,32.5
2018-07-28T10:39:04.539Z,32.437
2018-07-28T10:40:03.565Z,32.562
2018-07-28T10:41:04.409Z,32.687
2018-07-28T10:42:03.459Z,32.812
2018-07-28T10:43:04.085Z,32.937
2018-07-28T10:44:03.672Z,33.062
2018-07-28T10:45:03.514Z,33
2018-07-28T10:46:04.293Z,32.687
2018-07-28T10:47:03.937Z,32.625
2018-07-28T10:48:05.316Z,32.687
2018-07-28T10:49:03.636Z,32.687
2018-07-28T10:50:04.315Z,32.625
2018-07-28T10:51:03.938Z,32.75
2018-07-28T10:52:03.635Z,32.875
2018-07-28T10:53:03.916Z,33
2018-07-28T10:54:04.214Z,33.062
2018-07-28T10:55:04.165Z,33.125
2018-07-28T10:56:03.919Z,33.25
2018-07-28T10:57:03.758Z,33.375
2018-07-28T10:58:03.696Z,33.437
2018-07-28T10:59:03.392Z,33.312
2018-07-28T11:00:04.233Z,33.25
2018-07-28T11:01:03.539Z,33.25
2018-07-28T11:02:04.210Z,33.25
2018-07-28T11:03:03.772Z,33.187
2018-07-28T11:04:03.534Z,33.125
2018-07-28T11:05:04.373Z,33.125
2018-07-28T11:06:03.683Z,33.187
2018-07-28T11:07:03.376Z,33.375
2018-07-28T11:08:04.067Z,33.437
2018-07-28T11:09:03.725Z,33.437
2018-07-28T11:10:04.326Z,33.562
2018-07-28T11:11:03.930Z,33.562
2018-07-28T11:12:03.526Z,33.687
2018-07-28T11:13:04.142Z,33.812
2018-07-28T11:14:03.945Z,33.875
2018-07-28T11:15:03.505Z,33.875
2018-07-28T11:16:04.270Z,33.812
2018-07-28T11:17:03.823Z,33.812
2018-07-28T11:18:04.353Z,33.5
2018-07-28T11:19:04.005Z,33.312
2018-07-28T11:20:03.793Z,33.312
2018-07-28T11:21:03.486Z,33.312
2018-07-28T11:22:03.980Z,33.25
2018-07-28T11:23:03.611Z,32.937
2018-07-28T11:24:04.345Z,32.687
2018-07-28T11:25:03.965Z,32.75
2018-07-28T11:26:03.523Z,32.812
2018-07-28T11:27:04.315Z,33
2018-07-28T11:28:03.884Z,33.187
2018-07-28T11:29:03.542Z,33.375
2018-07-28T11:30:04.379Z,33.375
2018-07-28T11:31:03.844Z,33.375
2018-07-28T11:32:03.717Z,33.25
2018-07-28T11:33:03.860Z,33
2018-07-28T11:34:03.970Z,33
2018-07-28T11:35:03.939Z,33.187
2018-07-28T11:36:03.527Z,33.437
2018-07-28T11:37:04.246Z,33.75
2018-07-28T11:38:03.634Z,33.937
2018-07-28T11:39:04.468Z,34.187
2018-07-28T11:40:04.115Z,34.375
2018-07-28T11:41:03.807Z,34.5
2018-07-28T11:42:03.526Z,34.687
2018-07-28T11:43:05.255Z,34.937
2018-07-28T11:44:03.727Z,35
2018-07-28T11:45:03.529Z,35
2018-07-28T11:46:04.115Z,34.937
2018-07-28T11:47:04.049Z,35
2018-07-28T11:48:03.512Z,35.125
2018-07-28T11:49:04.317Z,35.375
2018-07-28T11:50:03.661Z,35.5
2018-07-28T11:51:04.180Z,35.812
2018-07-28T11:52:03.818Z,35.875
2018-07-28T11:53:03.445Z,35.937
2018-07-28T11:54:04.030Z,36
2018-07-28T11:55:03.737Z,36.062
2018-07-28T11:56:03.497Z,36.25
2018-07-28T11:57:03.800Z,36.5
2018-07-28T11:58:03.663Z,36.75
2018-07-28T11:59:04.281Z,36.812
2018-07-28T12:00:03.630Z,36.812
2018-07-28T12:01:04.178Z,36.625
2018-07-28T12:02:03.417Z,36.625
2018-07-28T12:03:04.113Z,36.375
2018-07-28T12:04:03.883Z,35.687
2018-07-28T12:05:04.232Z,35.437
2018-07-28T12:06:04.073Z,35.187
2018-07-28T12:07:03.430Z,35
2018-07-28T12:08:04.273Z,34.937
2018-07-28T12:09:03.814Z,34.812
2018-07-28T12:10:03.784Z,34.75
2018-07-28T12:11:03.421Z,34.812
2018-07-28T12:12:04.030Z,34.687
2018-07-28T12:13:03.675Z,34.75
2018-07-28T12:14:04.066Z,34.875
2018-07-28T12:15:03.947Z,34.937
2018-07-28T12:16:03.691Z,35
2018-07-28T12:17:05.277Z,35.25
2018-07-28T12:18:03.652Z,35.5
2018-07-28T12:19:04.335Z,35.625
2018-07-28T12:20:03.787Z,35.687
2018-07-28T12:21:03.457Z,35.5
2018-07-28T12:22:03.711Z,35.437
2018-07-28T12:23:03.374Z,35.375
2018-07-28T12:24:04.127Z,35.437
2018-07-28T12:25:03.796Z,35.375
2018-07-28T12:26:04.174Z,35.187
2018-07-28T12:27:03.329Z,35.125
2018-07-28T12:28:03.481Z,35.25
2018-07-28T12:29:04.181Z,35.437
2018-07-28T12:30:04.184Z,35.562
2018-07-28T12:31:03.790Z,35.875
2018-07-28T12:32:03.326Z,36.062
2018-07-28T12:33:03.970Z,36.312
2018-07-28T12:34:03.617Z,36.312
2018-07-28T12:35:03.673Z,36.125
2018-07-28T12:36:03.407Z,36.125
2018-07-28T12:37:04.209Z,36.125
2018-07-28T12:38:03.779Z,36.312
2018-07-28T12:39:03.591Z,36.5
2018-07-28T12:40:03.894Z,36.5